sensor_id;sensor_type;location;lat;lon;timestamp;pressure;altitude;pressure_sealevel;temperature;humidity
73566;BME280;61846;52.970;-3.168;2023-05-03T00:01:48;101781.59;;;12.97;46.30
73566;BME280;61846;52.970;-3.168;2023-05-03T00:04:15;101785.54;;;12.15;49.03
73566;BME280;61846;52.970;-3.168;2023-05-03T00:06:39;101783.95;;;13.63;46.67
73566;BME280;61846;52.970;-3.168;2023-05-03T00:09:04;101788.04;;;11.90;49.43
73566;BME280;61846;52.970;-3.168;2023-05-03T00:11:29;101783.74;;;11.86;49.63
73566;BME280;61846;52.970;-3.168;2023-05-03T00:13:55;101778.42;;;13.26;46.44
73566;BME280;61846;52.970;-3.168;2023-05-03T00:16:20;101774.52;;;14.19;44.76
73566;BME280;61846;52.970;-3.168;2023-05-03T00:18:45;101774.25;;;13.26;46.63
73566;BME280;61846;52.970;-3.168;2023-05-03T00:21:11;101775.98;;;12.92;47.01
73566;BME280;61846;52.970;-3.168;2023-05-03T00:23:36;101776.55;;;13.54;46.35
73566;BME280;61846;52.970;-3.168;2023-05-03T00:26:01;101774.54;;;12.62;47.58
73566;BME280;61846;52.970;-3.168;2023-05-03T00:28:27;101770.31;;;13.03;47.40
73566;BME280;61846;52.970;-3.168;2023-05-03T00:30:52;101768.28;;;13.32;46.43
73566;BME280;61846;52.970;-3.168;2023-05-03T00:33:18;101767.28;;;14.11;45.17
73566;BME280;61846;52.970;-3.168;2023-05-03T00:35:44;101766.85;;;14.13;45.17
73566;BME280;61846;52.970;-3.168;2023-05-03T00:38:09;101766.14;;;12.61;47.73
73566;BME280;61846;52.970;-3.168;2023-05-03T00:40:35;101761.94;;;13.75;46.35
73566;BME280;61846;52.970;-3.168;2023-05-03T00:43:00;101761.54;;;12.04;49.28
73566;BME280;61846;52.970;-3.168;2023-05-03T00:45:25;101758.69;;;12.04;49.74
73566;BME280;61846;52.970;-3.168;2023-05-03T00:47:51;101760.45;;;9.58;55.04
73566;BME280;61846;52.970;-3.168;2023-05-03T00:50:16;101756.85;;;11.02;52.25
73566;BME280;61846;52.970;-3.168;2023-05-03T00:52:42;101751.66;;;9.36;56.13
73566;BME280;61846;52.970;-3.168;2023-05-03T00:55:08;101748.35;;;10.08;54.49
73566;BME280;61846;52.970;-3.168;2023-05-03T00:57:33;101744.82;;;10.85;53.08
73566;BME280;61846;52.970;-3.168;2023-05-03T00:59:59;101744.95;;;11.42;52.12
73566;BME280;61846;52.970;-3.168;2023-05-03T01:02:24;101744.97;;;10.80;52.65
73566;BME280;61846;52.970;-3.168;2023-05-03T01:04:50;101745.00;;;11.38;51.90
73566;BME280;61846;52.970;-3.168;2023-05-03T01:07:22;101746.78;;;9.51;55.44
73566;BME280;61846;52.970;-3.168;2023-05-03T01:09:48;101747.21;;;10.82;52.33
73566;BME280;61846;52.970;-3.168;2023-05-03T01:12:16;101745.85;;;11.06;51.80
73566;BME280;61846;52.970;-3.168;2023-05-03T01:14:38;101747.90;;;9.26;55.74
73566;BME280;61846;52.970;-3.168;2023-05-03T01:17:02;101745.91;;;10.64;53.94
73566;BME280;61846;52.970;-3.168;2023-05-03T01:19:28;101749.63;;;11.40;51.73
73566;BME280;61846;52.970;-3.168;2023-05-03T01:21:56;101750.48;;;9.10;56.66
73566;BME280;61846;52.970;-3.168;2023-05-03T01:24:17;101749.57;;;10.23;54.32
73566;BME280;61846;52.970;-3.168;2023-05-03T01:26:39;101748.25;;;11.06;52.31
73566;BME280;61846;52.970;-3.168;2023-05-03T01:29:05;101746.06;;;11.33;51.86
73566;BME280;61846;52.970;-3.168;2023-05-03T01:31:33;101744.99;;;10.62;52.22
73566;BME280;61846;52.970;-3.168;2023-05-03T01:34:06;101749.17;;;12.55;48.62
73566;BME280;61846;52.970;-3.168;2023-05-03T01:36:27;101747.80;;;13.42;46.51
73566;BME280;61846;52.970;-3.168;2023-05-03T01:38:48;101748.34;;;13.52;46.00
73566;BME280;61846;52.970;-3.168;2023-05-03T01:41:13;101747.82;;;11.58;49.46
73566;BME280;61846;52.970;-3.168;2023-05-03T01:43:39;101745.81;;;11.02;51.08
73566;BME280;61846;52.970;-3.168;2023-05-03T01:46:04;101742.09;;;12.39;48.32
73566;BME280;61846;52.970;-3.168;2023-05-03T01:48:30;101742.83;;;12.30;47.95
73566;BME280;61846;52.970;-3.168;2023-05-03T01:50:55;101745.69;;;11.29;50.58
73566;BME280;61846;52.970;-3.168;2023-05-03T01:53:20;101747.09;;;11.27;50.96
73566;BME280;61846;52.970;-3.168;2023-05-03T01:55:46;101745.65;;;11.78;49.39
73566;BME280;61846;52.970;-3.168;2023-05-03T01:58:11;101747.65;;;11.33;50.49
73566;BME280;61846;52.970;-3.168;2023-05-03T02:00:37;101742.19;;;12.73;47.67
73566;BME280;61846;52.970;-3.168;2023-05-03T02:03:03;101745.80;;;11.38;49.77
73566;BME280;61846;52.970;-3.168;2023-05-03T02:05:28;101744.46;;;12.69;47.92
73566;BME280;61846;52.970;-3.168;2023-05-03T02:07:53;101737.48;;;13.30;46.04
73566;BME280;61846;52.970;-3.168;2023-05-03T02:10:19;101739.56;;;11.53;49.30
73566;BME280;61846;52.970;-3.168;2023-05-03T02:12:45;101735.96;;;13.65;45.56
73566;BME280;61846;52.970;-3.168;2023-05-03T02:15:11;101744.76;;;11.37;49.46
73566;BME280;61846;52.970;-3.168;2023-05-03T02:17:36;101735.45;;;11.84;49.32
73566;BME280;61846;52.970;-3.168;2023-05-03T02:20:01;101731.23;;;12.63;47.35
73566;BME280;61846;52.970;-3.168;2023-05-03T02:22:27;101732.83;;;11.47;49.45
73566;BME280;61846;52.970;-3.168;2023-05-03T02:24:52;101724.42;;;12.70;46.87
73566;BME280;61846;52.970;-3.168;2023-05-03T02:27:17;101721.07;;;12.64;47.04
73566;BME280;61846;52.970;-3.168;2023-05-03T02:29:43;101724.33;;;11.82;48.76
73566;BME280;61846;52.970;-3.168;2023-05-03T02:32:08;101723.47;;;11.92;48.46
73566;BME280;61846;52.970;-3.168;2023-05-03T02:34:34;101725.84;;;11.82;48.65
73566;BME280;61846;52.970;-3.168;2023-05-03T02:37:00;101726.63;;;11.29;50.09
73566;BME280;61846;52.970;-3.168;2023-05-03T02:39:25;101726.10;;;11.66;48.89
73566;BME280;61846;52.970;-3.168;2023-05-03T02:41:51;101730.84;;;11.51;49.42
73566;BME280;61846;52.970;-3.168;2023-05-03T02:44:16;101727.99;;;11.50;48.42
73566;BME280;61846;52.970;-3.168;2023-05-03T02:46:41;101728.36;;;11.78;48.48
73566;BME280;61846;52.970;-3.168;2023-05-03T02:49:07;101725.55;;;12.94;46.19
73566;BME280;61846;52.970;-3.168;2023-05-03T02:51:33;101734.21;;;10.59;50.54
73566;BME280;61846;52.970;-3.168;2023-05-03T02:53:58;101736.07;;;10.97;49.57
73566;BME280;61846;52.970;-3.168;2023-05-03T02:56:23;101736.40;;;11.41;49.02
73566;BME280;61846;52.970;-3.168;2023-05-03T02:58:48;101733.68;;;12.18;47.76
73566;BME280;61846;52.970;-3.168;2023-05-03T03:01:14;101739.92;;;10.79;49.53
73566;BME280;61846;52.970;-3.168;2023-05-03T03:03:40;101739.46;;;10.00;51.45
73566;BME280;61846;52.970;-3.168;2023-05-03T03:06:05;101739.42;;;10.86;50.70
73566;BME280;61846;52.970;-3.168;2023-05-03T03:08:31;101737.99;;;10.33;51.18
73566;BME280;61846;52.970;-3.168;2023-05-03T03:10:56;101741.30;;;11.02;50.51
73566;BME280;61846;52.970;-3.168;2023-05-03T03:13:21;101740.21;;;10.73;51.06
73566;BME280;61846;52.970;-3.168;2023-05-03T03:15:47;101739.96;;;12.30;47.70
73566;BME280;61846;52.970;-3.168;2023-05-03T03:18:13;101736.35;;;13.02;45.89
73566;BME280;61846;52.970;-3.168;2023-05-03T03:20:38;101741.32;;;11.77;48.02
73566;BME280;61846;52.970;-3.168;2023-05-03T03:23:04;101735.59;;;12.83;46.27
73566;BME280;61846;52.970;-3.168;2023-05-03T03:25:29;101735.35;;;11.58;47.86
73566;BME280;61846;52.970;-3.168;2023-05-03T03:27:55;101731.21;;;12.86;45.84
73566;BME280;61846;52.970;-3.168;2023-05-03T03:30:20;101727.58;;;13.07;45.37
73566;BME280;61846;52.970;-3.168;2023-05-03T03:32:46;101728.07;;;11.97;46.91
73566;BME280;61846;52.970;-3.168;2023-05-03T03:35:12;101728.31;;;11.21;49.38
73566;BME280;61846;52.970;-3.168;2023-05-03T03:37:37;101721.72;;;11.86;48.00
73566;BME280;61846;52.970;-3.168;2023-05-03T03:40:03;101716.07;;;13.00;45.89
73566;BME280;61846;52.970;-3.168;2023-05-03T03:42:28;101717.64;;;12.98;45.41
73566;BME280;61846;52.970;-3.168;2023-05-03T03:44:53;101716.93;;;12.83;45.73
73566;BME280;61846;52.970;-3.168;2023-05-03T03:47:18;101714.25;;;13.06;45.38
73566;BME280;61846;52.970;-3.168;2023-05-03T03:49:44;101710.52;;;12.86;45.10
73566;BME280;61846;52.970;-3.168;2023-05-03T03:52:09;101706.92;;;13.12;44.89
73566;BME280;61846;52.970;-3.168;2023-05-03T03:54:35;101701.81;;;13.83;43.45
73566;BME280;61846;52.970;-3.168;2023-05-03T03:57:00;101703.17;;;13.79;43.63
73566;BME280;61846;52.970;-3.168;2023-05-03T03:59:26;101700.63;;;12.83;45.18
73566;BME280;61846;52.970;-3.168;2023-05-03T04:01:51;101699.75;;;12.04;46.33
73566;BME280;61846;52.970;-3.168;2023-05-03T04:04:17;101704.85;;;12.25;45.90
73566;BME280;61846;52.970;-3.168;2023-05-03T04:06:42;101705.79;;;12.69;45.89
73566;BME280;61846;52.970;-3.168;2023-05-03T04:09:07;101707.60;;;11.62;47.72
73566;BME280;61846;52.970;-3.168;2023-05-03T04:11:33;101710.27;;;9.58;52.38
73566;BME280;61846;52.970;-3.168;2023-05-03T04:13:59;101707.87;;;10.93;49.95
73566;BME280;61846;52.970;-3.168;2023-05-03T04:16:24;101709.20;;;11.51;48.08
73566;BME280;61846;52.970;-3.168;2023-05-03T04:18:50;101712.10;;;11.28;48.65
73566;BME280;61846;52.970;-3.168;2023-05-03T04:21:16;101711.48;;;11.84;47.65
73566;BME280;61846;52.970;-3.168;2023-05-03T04:23:42;101716.33;;;11.72;48.57
73566;BME280;61846;52.970;-3.168;2023-05-03T04:26:07;101713.36;;;10.97;49.26
73566;BME280;61846;52.970;-3.168;2023-05-03T04:28:33;101708.54;;;11.54;48.46
73566;BME280;61846;52.970;-3.168;2023-05-03T04:30:58;101714.67;;;11.05;49.82
73566;BME280;61846;52.970;-3.168;2023-05-03T04:33:24;101715.44;;;10.14;51.70
73566;BME280;61846;52.970;-3.168;2023-05-03T04:35:50;101718.18;;;9.46;52.46
73566;BME280;61846;52.970;-3.168;2023-05-03T04:38:15;101720.88;;;9.96;52.12
73566;BME280;61846;52.970;-3.168;2023-05-03T04:40:41;101722.96;;;10.60;51.43
73566;BME280;61846;52.970;-3.168;2023-05-03T04:43:06;101721.08;;;9.90;52.04
73566;BME280;61846;52.970;-3.168;2023-05-03T04:45:31;101721.08;;;10.81;50.63
73566;BME280;61846;52.970;-3.168;2023-05-03T04:47:57;101722.88;;;10.00;52.47
73566;BME280;61846;52.970;-3.168;2023-05-03T04:50:23;101722.18;;;10.10;51.31
73566;BME280;61846;52.970;-3.168;2023-05-03T04:52:47;101722.97;;;11.45;49.19
73566;BME280;61846;52.970;-3.168;2023-05-03T04:55:13;101722.03;;;10.29;51.01
73566;BME280;61846;52.970;-3.168;2023-05-03T04:57:38;101727.66;;;11.53;48.42
73566;BME280;61846;52.970;-3.168;2023-05-03T05:00:05;101725.62;;;9.50;52.90
73566;BME280;61846;52.970;-3.168;2023-05-03T05:02:29;101727.41;;;10.68;50.46
73566;BME280;61846;52.970;-3.168;2023-05-03T05:04:54;101729.60;;;11.17;49.51
73566;BME280;61846;52.970;-3.168;2023-05-03T05:07:20;101731.51;;;11.29;48.68
73566;BME280;61846;52.970;-3.168;2023-05-03T05:09:45;101731.00;;;12.12;47.17
73566;BME280;61846;52.970;-3.168;2023-05-03T05:12:11;101732.58;;;11.83;47.59
73566;BME280;61846;52.970;-3.168;2023-05-03T05:14:36;101737.24;;;11.26;47.96
73566;BME280;61846;52.970;-3.168;2023-05-03T05:17:02;101734.61;;;11.74;47.18
73566;BME280;61846;52.970;-3.168;2023-05-03T05:19:28;101738.56;;;11.10;48.22
73566;BME280;61846;52.970;-3.168;2023-05-03T05:21:53;101741.89;;;9.29;52.30
73566;BME280;61846;52.970;-3.168;2023-05-03T05:24:19;101741.50;;;10.32;51.66
73566;BME280;61846;52.970;-3.168;2023-05-03T05:26:44;101741.28;;;10.83;49.50
73566;BME280;61846;52.970;-3.168;2023-05-03T05:29:10;101740.44;;;10.25;50.70
73566;BME280;61846;52.970;-3.168;2023-05-03T05:31:35;101744.53;;;9.14;53.31
73566;BME280;61846;52.970;-3.168;2023-05-03T05:34:01;101744.92;;;11.27;49.21
73566;BME280;61846;52.970;-3.168;2023-05-03T05:36:26;101744.46;;;10.36;50.26
73566;BME280;61846;52.970;-3.168;2023-05-03T05:38:52;101742.93;;;10.56;49.71
73566;BME280;61846;52.970;-3.168;2023-05-03T05:41:17;101742.17;;;10.25;51.17
73566;BME280;61846;52.970;-3.168;2023-05-03T05:43:43;101740.49;;;11.46;47.79
73566;BME280;61846;52.970;-3.168;2023-05-03T05:46:09;101742.09;;;11.21;48.28
73566;BME280;61846;52.970;-3.168;2023-05-03T05:48:34;101742.51;;;10.67;49.24
73566;BME280;61846;52.970;-3.168;2023-05-03T05:50:59;101743.56;;;11.53;48.15
73566;BME280;61846;52.970;-3.168;2023-05-03T05:53:25;101740.57;;;12.24;46.11
73566;BME280;61846;52.970;-3.168;2023-05-03T05:55:51;101739.12;;;12.64;44.83
73566;BME280;61846;52.970;-3.168;2023-05-03T05:58:16;101738.96;;;13.22;44.05
73566;BME280;61846;52.970;-3.168;2023-05-03T06:00:42;101735.36;;;12.99;43.65
73566;BME280;61846;52.970;-3.168;2023-05-03T06:03:07;101738.36;;;11.88;45.79
73566;BME280;61846;52.970;-3.168;2023-05-03T06:05:33;101737.14;;;12.66;44.58
73566;BME280;61846;52.970;-3.168;2023-05-03T06:07:58;101741.96;;;11.52;46.80
73566;BME280;61846;52.970;-3.168;2023-05-03T06:10:24;101742.77;;;10.91;48.47
73566;BME280;61846;52.970;-3.168;2023-05-03T06:12:50;101747.17;;;11.31;47.91
73566;BME280;61846;52.970;-3.168;2023-05-03T06:15:15;101747.93;;;10.38;49.61
73566;BME280;61846;52.970;-3.168;2023-05-03T06:17:40;101752.09;;;9.19;51.45
73566;BME280;61846;52.970;-3.168;2023-05-03T06:20:07;101750.08;;;9.57;51.34
73566;BME280;61846;52.970;-3.168;2023-05-03T06:22:31;101751.16;;;10.41;49.59
73566;BME280;61846;52.970;-3.168;2023-05-03T06:24:57;101752.40;;;12.52;45.97
73566;BME280;61846;52.970;-3.168;2023-05-03T06:27:22;101754.34;;;11.85;46.30
73566;BME280;61846;52.970;-3.168;2023-05-03T06:29:47;101749.53;;;12.82;44.94
73566;BME280;61846;52.970;-3.168;2023-05-03T06:32:13;101755.88;;;11.46;47.37
73566;BME280;61846;52.970;-3.168;2023-05-03T06:34:38;101759.88;;;11.49;47.60
73566;BME280;61846;52.970;-3.168;2023-05-03T06:37:04;101756.38;;;11.18;48.33
73566;BME280;61846;52.970;-3.168;2023-05-03T06:39:30;101751.30;;;10.38;49.41
73566;BME280;61846;52.970;-3.168;2023-05-03T06:41:55;101755.07;;;11.20;48.34
73566;BME280;61846;52.970;-3.168;2023-05-03T06:44:20;101759.75;;;11.38;48.07
73566;BME280;61846;52.970;-3.168;2023-05-03T06:46:46;101761.59;;;11.18;48.45
73566;BME280;61846;52.970;-3.168;2023-05-03T06:49:11;101762.82;;;11.63;47.63
73566;BME280;61846;52.970;-3.168;2023-05-03T06:51:37;101761.18;;;11.71;47.51
73566;BME280;61846;52.970;-3.168;2023-05-03T06:54:03;101760.67;;;10.11;50.33
73566;BME280;61846;52.970;-3.168;2023-05-03T06:56:28;101758.73;;;10.90;49.09
73566;BME280;61846;52.970;-3.168;2023-05-03T06:58:53;101759.89;;;11.11;48.42
73566;BME280;61846;52.970;-3.168;2023-05-03T07:01:19;101755.44;;;11.25;47.63
73566;BME280;61846;52.970;-3.168;2023-05-03T07:03:45;101754.89;;;10.58;49.24
73566;BME280;61846;52.970;-3.168;2023-05-03T07:06:10;101756.79;;;9.99;51.04
73566;BME280;61846;52.970;-3.168;2023-05-03T07:08:36;101756.09;;;11.70;48.26
73566;BME280;61846;52.970;-3.168;2023-05-03T07:11:01;101754.08;;;11.38;47.87
73566;BME280;61846;52.970;-3.168;2023-05-03T07:13:26;101753.74;;;10.34;49.66
73566;BME280;61846;52.970;-3.168;2023-05-03T07:15:51;101755.51;;;11.09;48.68
73566;BME280;61846;52.970;-3.168;2023-05-03T07:18:17;101755.81;;;10.96;49.16
73566;BME280;61846;52.970;-3.168;2023-05-03T07:20:43;101752.44;;;12.15;47.04
73566;BME280;61846;52.970;-3.168;2023-05-03T07:23:08;101747.42;;;12.25;46.20
73566;BME280;61846;52.970;-3.168;2023-05-03T07:25:34;101748.04;;;11.93;46.94
73566;BME280;61846;52.970;-3.168;2023-05-03T07:27:59;101746.84;;;10.65;48.66
73566;BME280;61846;52.970;-3.168;2023-05-03T07:30:25;101743.95;;;10.92;50.10
73566;BME280;61846;52.970;-3.168;2023-05-03T07:32:50;101742.39;;;11.49;48.26
73566;BME280;61846;52.970;-3.168;2023-05-03T07:35:15;101736.91;;;12.57;47.21
73566;BME280;61846;52.970;-3.168;2023-05-03T07:37:41;101737.19;;;12.47;47.01
73566;BME280;61846;52.970;-3.168;2023-05-03T07:40:08;101733.21;;;12.69;46.30
73566;BME280;61846;52.970;-3.168;2023-05-03T07:42:31;101736.76;;;12.47;46.01
73566;BME280;61846;52.970;-3.168;2023-05-03T07:44:58;101736.54;;;13.16;44.65
73566;BME280;61846;52.970;-3.168;2023-05-03T07:47:23;101733.88;;;13.49;43.48
73566;BME280;61846;52.970;-3.168;2023-05-03T07:49:48;101732.02;;;13.41;43.20
73566;BME280;61846;52.970;-3.168;2023-05-03T07:52:14;101736.18;;;13.12;43.23
73566;BME280;61846;52.970;-3.168;2023-05-03T07:54:39;101738.04;;;12.63;44.50
73566;BME280;61846;52.970;-3.168;2023-05-03T07:57:04;101744.58;;;11.48;45.73
73566;BME280;61846;52.970;-3.168;2023-05-03T07:59:30;101737.76;;;12.16;44.83
73566;BME280;61846;52.970;-3.168;2023-05-03T08:01:56;101739.88;;;12.09;44.37
73566;BME280;61846;52.970;-3.168;2023-05-03T08:04:21;101736.21;;;11.44;44.91
73566;BME280;61846;52.970;-3.168;2023-05-03T08:06:46;101740.58;;;10.21;48.50
73566;BME280;61846;52.970;-3.168;2023-05-03T08:09:12;101737.22;;;10.96;47.64
73566;BME280;61846;52.970;-3.168;2023-05-03T08:11:38;101730.79;;;12.04;45.08
73566;BME280;61846;52.970;-3.168;2023-05-03T08:14:04;101736.26;;;10.69;46.79
73566;BME280;61846;52.970;-3.168;2023-05-03T08:16:29;101735.39;;;10.45;48.54
73566;BME280;61846;52.970;-3.168;2023-05-03T08:18:55;101734.60;;;9.79;49.29
73566;BME280;61846;52.970;-3.168;2023-05-03T08:21:20;101733.52;;;11.50;46.49
73566;BME280;61846;52.970;-3.168;2023-05-03T08:23:46;101730.93;;;12.18;44.62
73566;BME280;61846;52.970;-3.168;2023-05-03T08:26:12;101731.18;;;11.38;46.58
73566;BME280;61846;52.970;-3.168;2023-05-03T08:28:37;101726.01;;;12.76;43.85
73566;BME280;61846;52.970;-3.168;2023-05-03T08:31:03;101724.78;;;12.70;43.19
73566;BME280;61846;52.970;-3.168;2023-05-03T08:33:29;101726.31;;;11.80;44.78
73566;BME280;61846;52.970;-3.168;2023-05-03T08:35:54;101721.58;;;13.24;43.00
73566;BME280;61846;52.970;-3.168;2023-05-03T08:38:20;101715.39;;;14.80;39.84
73566;BME280;61846;52.970;-3.168;2023-05-03T08:40:47;101713.67;;;14.84;39.87
73566;BME280;61846;52.970;-3.168;2023-05-03T08:43:12;101713.96;;;15.35;39.26
73566;BME280;61846;52.970;-3.168;2023-05-03T08:45:36;101717.32;;;14.57;40.53
73566;BME280;61846;52.970;-3.168;2023-05-03T08:48:03;101720.29;;;12.42;43.13
73566;BME280;61846;52.970;-3.168;2023-05-03T08:50:28;101716.80;;;12.28;44.08
73566;BME280;61846;52.970;-3.168;2023-05-03T08:52:53;101716.84;;;13.79;41.06
73566;BME280;61846;52.970;-3.168;2023-05-03T08:55:18;101723.50;;;11.91;44.28
73566;BME280;61846;52.970;-3.168;2023-05-03T08:57:43;101721.38;;;12.35;43.03
73566;BME280;61846;52.970;-3.168;2023-05-03T09:00:10;101719.33;;;13.74;40.51
73566;BME280;61846;52.970;-3.168;2023-05-03T09:02:34;101719.82;;;11.88;43.39
73566;BME280;61846;52.970;-3.168;2023-05-03T09:05:00;101716.64;;;11.71;44.44
73566;BME280;61846;52.970;-3.168;2023-05-03T09:07:25;101718.78;;;10.59;45.51
73566;BME280;61846;52.970;-3.168;2023-05-03T09:09:51;101709.27;;;12.19;43.64
73566;BME280;61846;52.970;-3.168;2023-05-03T09:14:44;101701.71;;;13.39;40.19
73566;BME280;61846;52.970;-3.168;2023-05-03T09:17:13;101692.63;;;13.30;40.71
73566;BME280;61846;52.970;-3.168;2023-05-03T09:22:05;101696.64;;;13.40;39.77
73566;BME280;61846;52.970;-3.168;2023-05-03T09:24:24;101695.05;;;14.04;39.65
73566;BME280;61846;52.970;-3.168;2023-05-03T09:26:50;101696.00;;;12.96;39.81
73566;BME280;61846;52.970;-3.168;2023-05-03T09:29:26;101692.95;;;12.92;39.94
73566;BME280;61846;52.970;-3.168;2023-05-03T09:31:56;101691.17;;;13.40;38.80
73566;BME280;61846;52.970;-3.168;2023-05-03T09:38:57;101698.77;;;11.94;40.14
73566;BME280;61846;52.970;-3.168;2023-05-03T09:41:26;101702.49;;;11.99;40.34
73566;BME280;61846;52.970;-3.168;2023-05-03T09:43:49;101693.01;;;12.33;40.34
73566;BME280;61846;52.970;-3.168;2023-05-03T09:46:13;101705.65;;;12.56;39.87
73566;BME280;61846;52.970;-3.168;2023-05-03T09:48:39;101691.41;;;13.26;39.48
73566;BME280;61846;52.970;-3.168;2023-05-03T09:51:04;101698.97;;;12.94;39.88
73566;BME280;61846;52.970;-3.168;2023-05-03T09:53:29;101694.97;;;12.76;40.69
73566;BME280;61846;52.970;-3.168;2023-05-03T09:55:56;101690.38;;;14.68;37.80
73566;BME280;61846;52.970;-3.168;2023-05-03T09:58:20;101689.98;;;12.92;40.75
73566;BME280;61846;52.970;-3.168;2023-05-03T10:00:45;101691.78;;;12.51;40.50
73566;BME280;61846;52.970;-3.168;2023-05-03T14:27:24;101420.84;;;15.59;33.46
73566;BME280;61846;52.970;-3.168;2023-05-03T14:29:48;101417.02;;;16.90;32.07
73566;BME280;61846;52.970;-3.168;2023-05-03T14:32:14;101418.46;;;17.88;30.67
73566;BME280;61846;52.970;-3.168;2023-05-03T14:34:39;101413.06;;;17.59;30.23
73566;BME280;61846;52.970;-3.168;2023-05-03T14:37:04;101409.98;;;17.85;29.60
73566;BME280;61846;52.970;-3.168;2023-05-03T14:39:30;101400.45;;;16.59;31.23
73566;BME280;61846;52.970;-3.168;2023-05-03T14:41:55;101399.61;;;17.26;30.14
73566;BME280;61846;52.970;-3.168;2023-05-03T14:44:20;101401.15;;;16.88;31.05
73566;BME280;61846;52.970;-3.168;2023-05-03T14:46:45;101400.37;;;16.52;31.28
73566;BME280;61846;52.970;-3.168;2023-05-03T14:49:12;101392.87;;;16.01;31.74
73566;BME280;61846;52.970;-3.168;2023-05-03T14:51:36;101401.69;;;17.10;31.01
73566;BME280;61846;52.970;-3.168;2023-05-03T14:54:01;101385.84;;;17.41;30.23
73566;BME280;61846;52.970;-3.168;2023-05-03T14:56:26;101380.03;;;16.66;31.59
73566;BME280;61846;52.970;-3.168;2023-05-03T14:58:52;101383.18;;;17.59;30.50
73566;BME280;61846;52.970;-3.168;2023-05-03T15:01:18;101386.61;;;17.97;30.07
73566;BME280;61846;52.970;-3.168;2023-05-03T15:03:42;101386.52;;;17.83;29.73
73566;BME280;61846;52.970;-3.168;2023-05-03T15:06:08;101388.15;;;15.41;32.39
73566;BME280;61846;52.970;-3.168;2023-05-03T15:08:33;101378.28;;;16.97;31.21
73566;BME280;61846;52.970;-3.168;2023-05-03T15:10:58;101381.27;;;15.97;32.30
73566;BME280;61846;52.970;-3.168;2023-05-03T15:13:24;101376.89;;;16.22;32.45
73566;BME280;61846;52.970;-3.168;2023-05-03T15:15:49;101377.71;;;16.53;32.11
73566;BME280;61846;52.970;-3.168;2023-05-03T15:18:14;101373.15;;;17.41;30.97
73566;BME280;61846;52.970;-3.168;2023-05-03T15:20:40;101379.91;;;17.49;31.10
73566;BME280;61846;52.970;-3.168;2023-05-03T15:23:05;101364.70;;;17.52;31.21
73566;BME280;61846;52.970;-3.168;2023-05-03T15:25:31;101371.40;;;17.82;30.65
73566;BME280;61846;52.970;-3.168;2023-05-03T15:27:56;101363.14;;;16.53;31.75
73566;BME280;61846;52.970;-3.168;2023-05-03T15:30:22;101375.83;;;15.37;33.60
73566;BME280;61846;52.970;-3.168;2023-05-03T15:32:46;101367.53;;;15.00;34.71
73566;BME280;61846;52.970;-3.168;2023-05-03T15:35:12;101364.57;;;15.77;33.29
73566;BME280;61846;52.970;-3.168;2023-05-03T15:37:37;101359.18;;;15.68;33.82
73566;BME280;61846;52.970;-3.168;2023-05-03T15:40:03;101365.14;;;16.49;32.98
73566;BME280;61846;52.970;-3.168;2023-05-03T15:42:28;101362.99;;;15.04;34.38
73566;BME280;61846;52.970;-3.168;2023-05-03T15:44:53;101368.99;;;14.49;36.11
73566;BME280;61846;52.970;-3.168;2023-05-03T15:47:18;101364.27;;;15.33;35.23
73566;BME280;61846;52.970;-3.168;2023-05-03T15:49:43;101374.31;;;15.47;34.31
73566;BME280;61846;52.970;-3.168;2023-05-03T15:52:09;101371.54;;;15.00;34.73
73566;BME280;61846;52.970;-3.168;2023-05-03T15:54:34;101358.22;;;15.92;33.96
73566;BME280;61846;52.970;-3.168;2023-05-03T15:57:00;101368.33;;;15.72;34.05
73566;BME280;61846;52.970;-3.168;2023-05-03T15:59:25;101360.51;;;14.52;35.19
73566;BME280;61846;52.970;-3.168;2023-05-03T16:01:51;101358.27;;;16.24;33.33
73566;BME280;61846;52.970;-3.168;2023-05-03T16:04:16;101362.10;;;14.85;35.52
73566;BME280;61846;52.970;-3.168;2023-05-03T16:06:41;101368.18;;;14.09;36.52
73566;BME280;61846;52.970;-3.168;2023-05-03T16:09:07;101358.40;;;15.56;34.97
73566;BME280;61846;52.970;-3.168;2023-05-03T16:11:32;101360.32;;;15.43;34.39
73566;BME280;61846;52.970;-3.168;2023-05-03T16:13:57;101358.67;;;16.32;33.26
73566;BME280;61846;52.970;-3.168;2023-05-03T16:16:23;101362.65;;;13.61;36.97
73566;BME280;61846;52.970;-3.168;2023-05-03T16:18:48;101349.92;;;15.11;35.21
73566;BME280;61846;52.970;-3.168;2023-05-03T16:21:14;101358.96;;;13.69;36.86
73566;BME280;61846;52.970;-3.168;2023-05-03T16:23:39;101352.88;;;14.90;35.41
73566;BME280;61846;52.970;-3.168;2023-05-03T16:26:10;101355.16;;;14.31;37.20
73566;BME280;61846;52.970;-3.168;2023-05-03T16:28:30;101350.99;;;14.03;37.62
73566;BME280;61846;52.970;-3.168;2023-05-03T16:30:55;101344.83;;;14.61;36.87
73566;BME280;61846;52.970;-3.168;2023-05-03T16:33:21;101347.25;;;13.66;37.57
73566;BME280;61846;52.970;-3.168;2023-05-03T16:35:46;101341.58;;;15.15;35.37
73566;BME280;61846;52.970;-3.168;2023-05-03T16:38:12;101341.36;;;14.01;36.82
73566;BME280;61846;52.970;-3.168;2023-05-03T16:40:37;101345.93;;;12.90;38.20
73566;BME280;61846;52.970;-3.168;2023-05-03T16:43:02;101336.47;;;14.51;35.92
73566;BME280;61846;52.970;-3.168;2023-05-03T16:45:27;101337.40;;;14.13;36.63
73566;BME280;61846;52.970;-3.168;2023-05-03T16:47:53;101337.73;;;14.73;36.32
73566;BME280;61846;52.970;-3.168;2023-05-03T16:50:19;101335.40;;;14.55;35.55
73566;BME280;61846;52.970;-3.168;2023-05-03T16:52:43;101350.79;;;12.96;38.56
73566;BME280;61846;52.970;-3.168;2023-05-03T16:55:11;101336.50;;;15.00;36.11
73566;BME280;61846;52.970;-3.168;2023-05-03T16:57:35;101334.68;;;13.93;36.95
73566;BME280;61846;52.970;-3.168;2023-05-03T16:59:59;101335.05;;;14.41;36.95
73566;BME280;61846;52.970;-3.168;2023-05-03T17:02:25;101332.81;;;14.05;37.20
73566;BME280;61846;52.970;-3.168;2023-05-03T17:04:50;101328.57;;;13.41;37.58